Share

Villard, MN (56385)

Sauk Centre (KMNSAUKC3) Elev 1253 ft | 45.74 °N, 94.96 °W | Change Station

Current weather conditions updated 1 second ago

Clear
Clear
53.6 °F
Feels Like 53.6 °F
N
13.0
Wind Variable Wind from North
Gusts 18.3 mph
Sunrise 6:24 AM
Sunset 8:14 PM
Moon Waning Gibbous

Today is forecast to be Much Cooler than yesterday.

Pressure 30.01 in
Visibility 10.0 miles
Clouds Clear
Dew Point 40 °F
Humidity 61%
Rainfall 0.00 in
Snow Depth Not available.
UV 7 out of 16
Pollen 9.70 out of 12
Air Quality Not available.
Flu Activity Sporadic
METAR KD39 211612Z AUTO 31021G25KT 10SM CLR 13/04 A3001 RMK AO2 T01260038

More Conditions Fewer Conditions

Pressure 30.01 in
Visibility 10.0 miles
Clouds Clear
Dew Point 40 °F
Humidity 61%
Rainfall 0.00 in
Snow Depth Not available.
UV 7 out of 16
Pollen 9.70 out of 12
Air Quality Not available.
Flu Activity Sporadic
METAR KD39 211612Z AUTO 31021G25KT 10SM CLR 13/04 A3001 RMK AO2 T01260038

More Conditions Fewer Conditions

10-Day Weather Forecast

Almanac

Astronomy

Apr. 21, 2014 Rise Set
Actual Time 6:24 AM CDT 8:14 PM CDT
Civil Twilight 5:52 AM CDT 8:46 PM CDT
Nautical Twilight 5:13 AM CDT 9:25 PM CDT
Astronomical Twilight 4:31 AM CDT 10:08 PM CDT
Moon 1:50 AM CDT 11:48 AM CDT
Length of Visible Light 14h 54m
Length of Day
13h 50m
Tomorrow will be 2m 58s longer.
Waning Gibbous, 57% of the Moon is Illuminated
Today
Waning Gibbous
Apr 22
Last Quarter
Apr 29
New
May 6
First Quarter
May 14
Full

Today's Extremes

State Highs State Lows

Community

  • Glass on White Lake
    Glass on White Lake
  • Bright Eyes
    Bright Eyes
  • Snowy Robin
    Snowy Robin
  • Spring Crocus
    Spring Crocus
  • Sun Pillar and Geese
    Sun Pillar and Geese

WunderPhotos

Upload Photos

1,703,682 photos uploaded!

WunderBlogs® & News

Nearby

Snow Depth

Station Depth Elevation
No new snow has been reported.

Coastal Water Temperatures

Place Temperature
No Stations Reporting

Earthquake Activity

City Distance Mag. Time & Date
No recent earthquake activity has been reported nearby.
Minimum magnitude displayed is 2.5.

Nearby Weather Stations

Station Location Temp. Dew Point Humidity Wind Precip. Elev Updated Type
Sauk Centre, Sauk Centre, MN 53.6 °F 40 °F 61% North  at  13.0 mph 0.00 in / hr 1253 ft 11:31 AM CDT Rapid Fire
KMGK (Magic 107.1) FM, Glenwood, MN 53.7 °F 41 °F 63% WNW  at  7.0 mph 0.00 in / hr 1168 ft 11:31 AM CDT Rapid Fire
Grey Eagle, MN 62.8 °F 43 °F 49% North  at  5.3 mph - / hr 1214 ft 11:22 AM CDT Normal

Show More Stations Show Fewer Stations

What do you think?

We're not finished. Please let us know what you like, what you don't like, and what you are still missing.